sensor_id;sensor_type;location;lat;lon;timestamp;pressure;altitude;pressure_sealevel;temperature;humidity
12666;BME280;58531;59.050;17.416;2023-11-21T00:00:22;101217.44;;;-1.52;100.00
12666;BME280;58531;59.050;17.416;2023-11-21T00:02:49;101219.75;;;-1.51;100.00
12666;BME280;58531;59.050;17.416;2023-11-21T00:05:16;101220.91;;;-1.48;100.00
12666;BME280;58531;59.050;17.416;2023-11-21T00:07:43;101224.31;;;-1.48;100.00
12666;BME280;58531;59.050;17.416;2023-11-21T00:10:11;101224.38;;;-1.44;100.00
12666;BME280;58531;59.050;17.416;2023-11-21T00:12:41;101224.47;;;-1.41;100.00
12666;BME280;58531;59.050;17.416;2023-11-21T00:15:08;101221.59;;;-1.36;100.00
12666;BME280;58531;59.050;17.416;2023-11-21T00:17:36;101236.78;;;-1.26;100.00
12666;BME280;58531;59.050;17.416;2023-11-21T00:20:05;101232.38;;;-1.22;100.00
12666;BME280;58531;59.050;17.416;2023-11-21T00:22:33;101239.50;;;-1.22;100.00
12666;BME280;58531;59.050;17.416;2023-11-21T00:25:00;101242.13;;;-1.22;100.00
12666;BME280;58531;59.050;17.416;2023-11-21T00:27:27;101242.84;;;-1.22;100.00
12666;BME280;58531;59.050;17.416;2023-11-21T00:29:55;101248.63;;;-1.17;100.00
12666;BME280;58531;59.050;17.416;2023-11-21T00:32:22;101246.47;;;-1.11;100.00
12666;BME280;58531;59.050;17.416;2023-11-21T00:34:48;101251.13;;;-1.05;100.00
12666;BME280;58531;59.050;17.416;2023-11-21T00:37:15;101254.94;;;-1.02;100.00
12666;BME280;58531;59.050;17.416;2023-11-21T00:39:42;101250.09;;;-1.00;100.00
12666;BME280;58531;59.050;17.416;2023-11-21T00:42:09;101250.25;;;-0.93;100.00
12666;BME280;58531;59.050;17.416;2023-11-21T00:44:37;101253.31;;;-0.91;100.00
12666;BME280;58531;59.050;17.416;2023-11-21T00:47:06;101251.09;;;-0.89;100.00
12666;BME280;58531;59.050;17.416;2023-11-21T00:49:33;101254.13;;;-0.87;100.00
12666;BME280;58531;59.050;17.416;2023-11-21T00:52:00;101263.16;;;-0.85;100.00
12666;BME280;58531;59.050;17.416;2023-11-21T00:54:28;101264.69;;;-0.84;100.00
12666;BME280;58531;59.050;17.416;2023-11-21T00:56:55;101251.94;;;-0.85;100.00
12666;BME280;58531;59.050;17.416;2023-11-21T00:59:22;101262.44;;;-0.85;100.00
12666;BME280;58531;59.050;17.416;2023-11-21T01:01:49;101263.53;;;-0.86;100.00
12666;BME280;58531;59.050;17.416;2023-11-21T01:04:18;101263.94;;;-0.84;100.00
12666;BME280;58531;59.050;17.416;2023-11-21T01:06:44;101269.34;;;-0.77;100.00
12666;BME280;58531;59.050;17.416;2023-11-21T01:09:11;101272.34;;;-0.75;100.00
12666;BME280;58531;59.050;17.416;2023-11-21T01:11:38;101272.78;;;-0.73;100.00
12666;BME280;58531;59.050;17.416;2023-11-21T01:14:05;101270.94;;;-0.73;100.00
12666;BME280;58531;59.050;17.416;2023-11-21T01:16:34;101275.75;;;-0.75;100.00
12666;BME280;58531;59.050;17.416;2023-11-21T01:19:01;101275.41;;;-0.73;100.00
12666;BME280;58531;59.050;17.416;2023-11-21T01:21:31;101280.63;;;-0.73;100.00
12666;BME280;58531;59.050;17.416;2023-11-21T01:23:59;101282.56;;;-0.70;100.00
12666;BME280;58531;59.050;17.416;2023-11-21T01:26:26;101284.53;;;-0.67;100.00
12666;BME280;58531;59.050;17.416;2023-11-21T01:28:53;101286.13;;;-0.63;100.00
12666;BME280;58531;59.050;17.416;2023-11-21T01:31:20;101286.88;;;-0.62;100.00
12666;BME280;58531;59.050;17.416;2023-11-21T01:33:47;101288.91;;;-0.56;100.00
12666;BME280;58531;59.050;17.416;2023-11-21T01:36:14;101285.19;;;-0.55;100.00
12666;BME280;58531;59.050;17.416;2023-11-21T01:38:42;101286.34;;;-0.52;100.00
12666;BME280;58531;59.050;17.416;2023-11-21T01:41:09;101294.63;;;-0.50;100.00
12666;BME280;58531;59.050;17.416;2023-11-21T01:43:36;101296.22;;;-0.46;100.00
12666;BME280;58531;59.050;17.416;2023-11-21T01:46:04;101296.97;;;-0.45;100.00
12666;BME280;58531;59.050;17.416;2023-11-21T01:48:32;101300.84;;;-0.39;100.00
12666;BME280;58531;59.050;17.416;2023-11-21T01:50:59;101303.91;;;-0.37;100.00
12666;BME280;58531;59.050;17.416;2023-11-21T01:53:27;101305.41;;;-0.36;100.00
12666;BME280;58531;59.050;17.416;2023-11-21T01:55:56;101301.69;;;-0.35;100.00
12666;BME280;58531;59.050;17.416;2023-11-21T01:58:23;101308.47;;;-0.34;100.00
12666;BME280;58531;59.050;17.416;2023-11-21T02:00:50;101303.75;;;-0.25;100.00
12666;BME280;58531;59.050;17.416;2023-11-21T02:03:20;101306.38;;;-0.25;100.00
12666;BME280;58531;59.050;17.416;2023-11-21T02:05:47;101314.66;;;-0.23;100.00
12666;BME280;58531;59.050;17.416;2023-11-21T02:08:14;101307.88;;;-0.24;100.00
12666;BME280;58531;59.050;17.416;2023-11-21T02:10:41;101314.34;;;-0.22;100.00
12666;BME280;58531;59.050;17.416;2023-11-21T02:13:09;101309.41;;;-0.23;100.00
12666;BME280;58531;59.050;17.416;2023-11-21T02:15:36;101311.28;;;-0.24;100.00
12666;BME280;58531;59.050;17.416;2023-11-21T02:18:04;101315.06;;;-0.21;100.00
12666;BME280;58531;59.050;17.416;2023-11-21T02:20:31;101311.44;;;-0.17;100.00
12666;BME280;58531;59.050;17.416;2023-11-21T02:23:01;101332.06;;;-0.15;100.00
12666;BME280;58531;59.050;17.416;2023-11-21T02:25:29;101324.63;;;-0.13;100.00
12666;BME280;58531;59.050;17.416;2023-11-21T02:27:58;101333.69;;;-0.11;100.00
12666;BME280;58531;59.050;17.416;2023-11-21T02:30:25;101334.44;;;-0.10;100.00
12666;BME280;58531;59.050;17.416;2023-11-21T02:32:53;101331.53;;;-0.05;100.00
12666;BME280;58531;59.050;17.416;2023-11-21T02:35:20;101338.56;;;-0.09;100.00
12666;BME280;58531;59.050;17.416;2023-11-21T02:37:47;101339.75;;;-0.07;100.00
12666;BME280;58531;59.050;17.416;2023-11-21T02:40:16;101342.81;;;-0.05;100.00
12666;BME280;58531;59.050;17.416;2023-11-21T02:42:43;101341.28;;;-0.06;100.00
12666;BME280;58531;59.050;17.416;2023-11-21T02:45:10;101346.94;;;-0.04;100.00
12666;BME280;58531;59.050;17.416;2023-11-21T02:47:38;101346.25;;;-0.01;100.00
12666;BME280;58531;59.050;17.416;2023-11-21T02:50:06;101348.88;;;-0.01;100.00
12666;BME280;58531;59.050;17.416;2023-11-21T02:52:33;101348.53;;;0.00;100.00
12666;BME280;58531;59.050;17.416;2023-11-21T02:55:00;101351.34;;;0.11;100.00
12666;BME280;58531;59.050;17.416;2023-11-21T02:57:29;101354.34;;;0.09;100.00
12666;BME280;58531;59.050;17.416;2023-11-21T02:59:56;101362.22;;;0.09;100.00
12666;BME280;58531;59.050;17.416;2023-11-21T03:02:23;101365.56;;;0.10;100.00
12666;BME280;58531;59.050;17.416;2023-11-21T03:04:49;101367.47;;;0.09;100.00
12666;BME280;58531;59.050;17.416;2023-11-21T03:07:16;101367.88;;;0.11;100.00
12666;BME280;58531;59.050;17.416;2023-11-21T03:09:44;101379.91;;;0.12;100.00
12666;BME280;58531;59.050;17.416;2023-11-21T03:12:11;101375.06;;;0.14;100.00
12666;BME280;58531;59.050;17.416;2023-11-21T03:14:40;101382.94;;;0.14;100.00
12666;BME280;58531;59.050;17.416;2023-11-21T03:17:07;101391.25;;;0.16;100.00
12666;BME280;58531;59.050;17.416;2023-11-21T03:19:33;101389.72;;;0.15;100.00
12666;BME280;58531;59.050;17.416;2023-11-21T03:22:00;101397.66;;;0.19;100.00
12666;BME280;58531;59.050;17.416;2023-11-21T03:24:27;101397.31;;;0.20;100.00
12666;BME280;58531;59.050;17.416;2023-11-21T03:26:54;101397.72;;;0.22;100.00
12666;BME280;58531;59.050;17.416;2023-11-21T03:29:21;101397.38;;;0.24;100.00
12666;BME280;58531;59.050;17.416;2023-11-21T03:31:49;101397.03;;;0.25;100.00
12666;BME280;58531;59.050;17.416;2023-11-21T03:34:24;101401.16;;;0.26;100.00
12666;BME280;58531;59.050;17.416;2023-11-21T03:36:52;101400.06;;;0.27;100.00
12666;BME280;58531;59.050;17.416;2023-11-21T03:39:19;101406.50;;;0.30;100.00
12666;BME280;58531;59.050;17.416;2023-11-21T03:41:47;101404.34;;;0.35;100.00
12666;BME280;58531;59.050;17.416;2023-11-21T03:44:14;101405.88;;;0.36;100.00
12666;BME280;58531;59.050;17.416;2023-11-21T03:46:41;101414.44;;;0.33;100.00
12666;BME280;58531;59.050;17.416;2023-11-21T03:49:10;101415.97;;;0.34;100.00
12666;BME280;58531;59.050;17.416;2023-11-21T03:51:37;101415.22;;;0.34;100.00
12666;BME280;58531;59.050;17.416;2023-11-21T03:54:04;101421.22;;;0.34;100.00
12666;BME280;58531;59.050;17.416;2023-11-21T03:56:31;101417.06;;;0.33;100.00
12666;BME280;58531;59.050;17.416;2023-11-21T03:58:58;101424.94;;;0.33;100.00
12666;BME280;58531;59.050;17.416;2023-11-21T04:01:24;101426.03;;;0.32;100.00
12666;BME280;58531;59.050;17.416;2023-11-21T04:03:51;101430.19;;;0.33;100.00
12666;BME280;58531;59.050;17.416;2023-11-21T04:06:19;101427.56;;;0.33;100.00
12666;BME280;58531;59.050;17.416;2023-11-21T04:08:46;101435.44;;;0.33;100.00
12666;BME280;58531;59.050;17.416;2023-11-21T04:11:13;101435.81;;;0.32;100.00
12666;BME280;58531;59.050;17.416;2023-11-21T04:13:41;101441.81;;;0.32;100.00
12666;BME280;58531;59.050;17.416;2023-11-21T04:16:08;101434.28;;;0.31;100.00
12666;BME280;58531;59.050;17.416;2023-11-21T04:18:36;101441.41;;;0.30;100.00
12666;BME280;58531;59.050;17.416;2023-11-21T04:21:03;101437.25;;;0.29;100.00
12666;BME280;58531;59.050;17.416;2023-11-21T04:23:32;101439.59;;;0.34;100.00
12666;BME280;58531;59.050;17.416;2023-11-21T04:25:59;101441.81;;;0.32;100.00
12666;BME280;58531;59.050;17.416;2023-11-21T04:28:27;101444.03;;;0.30;100.00
12666;BME280;58531;59.050;17.416;2023-11-21T04:30:54;101435.66;;;0.25;100.00
12666;BME280;58531;59.050;17.416;2023-11-21T04:33:21;101446.22;;;0.28;100.00
12666;BME280;58531;59.050;17.416;2023-11-21T04:35:48;101445.44;;;0.24;100.00
12666;BME280;58531;59.050;17.416;2023-11-21T04:38:15;101446.53;;;0.23;100.00
12666;BME280;58531;59.050;17.416;2023-11-21T04:40:43;101460.78;;;0.22;100.00
12666;BME280;58531;59.050;17.416;2023-11-21T04:43:10;101464.91;;;0.23;100.00
12666;BME280;58531;59.050;17.416;2023-11-21T04:45:37;101460.00;;;0.22;100.00
12666;BME280;58531;59.050;17.416;2023-11-21T04:48:06;101464.19;;;0.26;100.00
12666;BME280;58531;59.050;17.416;2023-11-21T04:50:33;101467.59;;;0.27;100.00
12666;BME280;58531;59.050;17.416;2023-11-21T04:53:00;101470.22;;;0.27;100.00
12666;BME280;58531;59.050;17.416;2023-11-21T04:55:27;101470.16;;;0.23;100.00
12666;BME280;58531;59.050;17.416;2023-11-21T04:57:55;101476.16;;;0.24;100.00
12666;BME280;58531;59.050;17.416;2023-11-21T05:00:22;101478.47;;;0.25;100.00
12666;BME280;58531;59.050;17.416;2023-11-21T05:02:49;101483.00;;;0.28;100.00
12666;BME280;58531;59.050;17.416;2023-11-21T05:05:19;101492.41;;;0.29;100.00
12666;BME280;58531;59.050;17.416;2023-11-21T05:07:46;101491.72;;;0.32;100.00
12666;BME280;58531;59.050;17.416;2023-11-21T05:10:14;101495.03;;;0.29;100.00
12666;BME280;58531;59.050;17.416;2023-11-21T05:12:41;101496.97;;;0.32;100.00
12666;BME280;58531;59.050;17.416;2023-11-21T05:15:14;101495.88;;;0.33;100.00
12666;BME280;58531;59.050;17.416;2023-11-21T05:17:41;101503.47;;;0.38;100.00
12666;BME280;58531;59.050;17.416;2023-11-21T05:20:09;101504.16;;;0.35;100.00
12666;BME280;58531;59.050;17.416;2023-11-21T05:22:36;101503.84;;;0.37;100.00
12666;BME280;58531;59.050;17.416;2023-11-21T05:25:07;101503.47;;;0.38;100.00
12666;BME280;58531;59.050;17.416;2023-11-21T05:27:34;101506.53;;;0.40;100.00
12666;BME280;58531;59.050;17.416;2023-11-21T05:30:01;101515.19;;;0.41;100.00
12666;BME280;58531;59.050;17.416;2023-11-21T05:32:32;101518.66;;;0.45;100.00
12666;BME280;58531;59.050;17.416;2023-11-21T05:35:04;101517.53;;;0.46;100.00
12666;BME280;58531;59.050;17.416;2023-11-21T05:37:35;101521.00;;;0.50;100.00
12666;BME280;58531;59.050;17.416;2023-11-21T05:40:05;101517.59;;;0.49;100.00
12666;BME280;58531;59.050;17.416;2023-11-21T05:42:32;101522.53;;;0.51;100.00
12666;BME280;58531;59.050;17.416;2023-11-21T05:44:59;101530.31;;;0.47;100.00
12666;BME280;58531;59.050;17.416;2023-11-21T05:47:37;101527.78;;;0.51;100.00
12666;BME280;58531;59.050;17.416;2023-11-21T05:50:05;101530.75;;;0.49;100.00
12666;BME280;58531;59.050;17.416;2023-11-21T05:52:35;101534.19;;;0.53;100.00
12666;BME280;58531;59.050;17.416;2023-11-21T05:55:02;101534.63;;;0.55;100.00
12666;BME280;58531;59.050;17.416;2023-11-21T05:57:32;101538.78;;;0.56;100.00
12666;BME280;58531;59.050;17.416;2023-11-21T05:59:59;101541.31;;;0.53;100.00
12666;BME280;58531;59.050;17.416;2023-11-21T06:02:28;101541.72;;;0.55;100.00
12666;BME280;58531;59.050;17.416;2023-11-21T06:04:57;101549.97;;;0.53;100.00
12666;BME280;58531;59.050;17.416;2023-11-21T06:07:23;101555.66;;;0.55;100.00
12666;BME280;58531;59.050;17.416;2023-11-21T06:09:50;101562.41;;;0.56;100.00
12666;BME280;58531;59.050;17.416;2023-11-21T06:12:17;101563.84;;;0.54;100.00
12666;BME280;58531;59.050;17.416;2023-11-21T06:14:45;101564.69;;;0.58;100.00
12666;BME280;58531;59.050;17.416;2023-11-21T06:17:13;101569.94;;;0.58;100.00
12666;BME280;58531;59.050;17.416;2023-11-21T06:19:40;101577.56;;;0.63;100.00
12666;BME280;58531;59.050;17.416;2023-11-21T06:22:08;101579.78;;;0.61;100.00
12666;BME280;58531;59.050;17.416;2023-11-21T06:24:35;101583.94;;;0.62;100.00
12666;BME280;58531;59.050;17.416;2023-11-21T06:27:03;101590.28;;;0.61;100.00
12666;BME280;58531;59.050;17.416;2023-11-21T06:29:30;101594.53;;;0.65;100.00
12666;BME280;58531;59.050;17.416;2023-11-21T06:31:58;101586.97;;;0.64;100.00
12666;BME280;58531;59.050;17.416;2023-11-21T06:34:25;101608.34;;;0.62;100.00
12666;BME280;58531;59.050;17.416;2023-11-21T06:36:53;101606.16;;;0.64;100.00
12666;BME280;58531;59.050;17.416;2023-11-21T06:39:21;101604.63;;;0.63;100.00
12666;BME280;58531;59.050;17.416;2023-11-21T06:41:49;101601.22;;;0.63;100.00
12666;BME280;58531;59.050;17.416;2023-11-21T06:44:15;101601.72;;;0.68;100.00
12666;BME280;58531;59.050;17.416;2023-11-21T06:46:42;101606.22;;;0.68;100.00
12666;BME280;58531;59.050;17.416;2023-11-21T06:49:10;101610.72;;;0.67;100.00
12666;BME280;58531;59.050;17.416;2023-11-21T06:51:37;101609.53;;;0.65;100.00
12666;BME280;58531;59.050;17.416;2023-11-21T06:54:05;101623.88;;;0.67;100.00
12666;BME280;58531;59.050;17.416;2023-11-21T06:56:34;101627.91;;;0.65;100.00
12666;BME280;58531;59.050;17.416;2023-11-21T06:59:01;101632.06;;;0.66;100.00
12666;BME280;58531;59.050;17.416;2023-11-21T07:01:31;101633.59;;;0.67;100.00
12666;BME280;58531;59.050;17.416;2023-11-21T07:03:59;101641.06;;;0.65;100.00
12666;BME280;58531;59.050;17.416;2023-11-21T07:06:26;101644.47;;;0.65;100.00
12666;BME280;58531;59.050;17.416;2023-11-21T07:08:53;101642.94;;;0.64;100.00
12666;BME280;58531;59.050;17.416;2023-11-21T07:11:20;101636.91;;;0.64;100.00
12666;BME280;58531;59.050;17.416;2023-11-21T07:13:49;101651.16;;;0.63;100.00
12666;BME280;58531;59.050;17.416;2023-11-21T07:16:16;101653.47;;;0.64;100.00
12666;BME280;58531;59.050;17.416;2023-11-21T07:18:44;101655.41;;;0.67;100.00
12666;BME280;58531;59.050;17.416;2023-11-21T07:21:11;101651.25;;;0.66;100.00
12666;BME280;58531;59.050;17.416;2023-11-21T07:23:38;101659.56;;;0.68;100.00
12666;BME280;58531;59.050;17.416;2023-11-21T07:26:05;101656.16;;;0.68;100.00
12666;BME280;58531;59.050;17.416;2023-11-21T07:28:34;101663.28;;;0.67;100.00
12666;BME280;58531;59.050;17.416;2023-11-21T07:31:03;101663.34;;;0.71;100.00
12666;BME280;58531;59.050;17.416;2023-11-21T07:33:30;101657.34;;;0.70;100.00
12666;BME280;58531;59.050;17.416;2023-11-21T07:35:57;101660.66;;;0.67;100.00
12666;BME280;58531;59.050;17.416;2023-11-21T07:38:24;101667.03;;;0.66;100.00
12666;BME280;58531;59.050;17.416;2023-11-21T07:40:50;101665.97;;;0.71;100.00
12666;BME280;58531;59.050;17.416;2023-11-21T07:43:17;101676.16;;;0.72;100.00
12666;BME280;58531;59.050;17.416;2023-11-21T07:45:45;101670.50;;;0.70;100.00
12666;BME280;58531;59.050;17.416;2023-11-21T07:48:13;101667.75;;;0.67;100.00
12666;BME280;58531;59.050;17.416;2023-11-21T07:50:40;101681.34;;;0.69;100.00
12666;BME280;58531;59.050;17.416;2023-11-21T07:53:06;101672.28;;;0.66;100.00
12666;BME280;58531;59.050;17.416;2023-11-21T07:55:33;101679.06;;;0.67;100.00
12666;BME280;58531;59.050;17.416;2023-11-21T07:58:01;101679.06;;;0.67;100.00
12666;BME280;58531;59.050;17.416;2023-11-21T08:00:29;101679.53;;;0.73;100.00
12666;BME280;58531;59.050;17.416;2023-11-21T08:02:56;101679.91;;;0.71;100.00
12666;BME280;58531;59.050;17.416;2023-11-21T08:05:24;101685.16;;;0.71;100.00
12666;BME280;58531;59.050;17.416;2023-11-21T08:07:51;101693.38;;;0.70;100.00
12666;BME280;58531;59.050;17.416;2023-11-21T08:10:17;101701.50;;;0.65;100.00
12666;BME280;58531;59.050;17.416;2023-11-21T08:12:44;101705.34;;;0.67;100.00
12666;BME280;58531;59.050;17.416;2023-11-21T08:15:11;101710.19;;;0.65;100.00
12666;BME280;58531;59.050;17.416;2023-11-21T08:17:37;101697.03;;;0.65;100.00
12666;BME280;58531;59.050;17.416;2023-11-21T08:20:05;101700.75;;;0.64;100.00
12666;BME280;58531;59.050;17.416;2023-11-21T08:22:35;101702.97;;;0.62;100.00
12666;BME280;58531;59.050;17.416;2023-11-21T08:25:02;101702.63;;;0.64;100.00
12666;BME280;58531;59.050;17.416;2023-11-21T08:27:30;101707.81;;;0.60;100.00
12666;BME280;58531;59.050;17.416;2023-11-21T08:29:57;101711.28;;;0.64;100.00
12666;BME280;58531;59.050;17.416;2023-11-21T08:32:24;101715.44;;;0.65;100.00
12666;BME280;58531;59.050;17.416;2023-11-21T08:34:50;101721.13;;;0.67;100.00
12666;BME280;58531;59.050;17.416;2023-11-21T08:37:17;101722.53;;;0.65;100.00
12666;BME280;58531;59.050;17.416;2023-11-21T08:39:47;101727.03;;;0.64;100.00
12666;BME280;58531;59.050;17.416;2023-11-21T08:42:14;101733.06;;;0.65;100.00
12666;BME280;58531;59.050;17.416;2023-11-21T08:44:41;101741.03;;;0.68;100.00
12666;BME280;58531;59.050;17.416;2023-11-21T08:47:07;101734.69;;;0.69;100.00
12666;BME280;58531;59.050;17.416;2023-11-21T08:49:34;101737.72;;;0.71;100.00
12666;BME280;58531;59.050;17.416;2023-11-21T08:52:01;101731.69;;;0.71;100.00
12666;BME280;58531;59.050;17.416;2023-11-21T08:54:30;101728.75;;;0.72;100.00
12666;BME280;58531;59.050;17.416;2023-11-21T08:56:58;101732.91;;;0.73;100.00
12666;BME280;58531;59.050;17.416;2023-11-21T08:59:26;101733.41;;;0.63;100.00
12666;BME280;58531;59.050;17.416;2023-11-21T09:01:53;101742.56;;;0.54;100.00
12666;BME280;58531;59.050;17.416;2023-11-21T09:04:19;101741.97;;;0.45;100.00
12666;BME280;58531;59.050;17.416;2023-11-21T09:06:46;101743.56;;;0.49;100.00
12666;BME280;58531;59.050;17.416;2023-11-21T09:09:13;101742.41;;;0.47;100.00
12666;BME280;58531;59.050;17.416;2023-11-21T09:11:40;101752.63;;;0.52;100.00
12666;BME280;58531;59.050;17.416;2023-11-21T09:14:08;101751.47;;;0.49;100.00
12666;BME280;58531;59.050;17.416;2023-11-21T09:16:35;101755.88;;;0.45;100.00
12666;BME280;58531;59.050;17.416;2023-11-21T09:19:02;101757.41;;;0.46;100.00
12666;BME280;58531;59.050;17.416;2023-11-21T09:21:30;101758.91;;;0.47;100.00
12666;BME280;58531;59.050;17.416;2023-11-21T09:23:58;101754.75;;;0.46;100.00
12666;BME280;58531;59.050;17.416;2023-11-21T09:26:25;101763.44;;;0.47;100.00
12666;BME280;58531;59.050;17.416;2023-11-21T09:28:52;101763.25;;;0.55;100.00
12666;BME280;58531;59.050;17.416;2023-11-21T09:31:20;101771.22;;;0.59;100.00
12666;BME280;58531;59.050;17.416;2023-11-21T09:33:48;101776.47;;;0.59;100.00
12666;BME280;58531;59.050;17.416;2023-11-21T09:36:15;101774.34;;;0.64;100.00
12666;BME280;58531;59.050;17.416;2023-11-21T09:38:42;101779.38;;;0.69;100.00
12666;BME280;58531;59.050;17.416;2023-11-21T09:41:16;101777.41;;;0.66;100.00
12666;BME280;58531;59.050;17.416;2023-11-21T09:43:46;101776.22;;;0.64;100.00
12666;BME280;58531;59.050;17.416;2023-11-21T09:46:14;101778.59;;;0.69;100.00
12666;BME280;58531;59.050;17.416;2023-11-21T09:48:50;101788.91;;;0.77;100.00
12666;BME280;58531;59.050;17.416;2023-11-21T09:51:19;101785.28;;;0.82;100.00
12666;BME280;58531;59.050;17.416;2023-11-21T09:53:49;101790.53;;;0.82;100.00
12666;BME280;58531;59.050;17.416;2023-11-21T09:56:17;101796.47;;;0.79;100.00
12666;BME280;58531;59.050;17.416;2023-11-21T09:58:51;101802.66;;;0.71;100.00
12666;BME280;58531;59.050;17.416;2023-11-21T10:01:19;101811.59;;;0.66;100.00
12666;BME280;58531;59.050;17.416;2023-11-21T10:03:47;101805.06;;;0.60;100.00
12666;BME280;58531;59.050;17.416;2023-11-21T10:06:16;101806.81;;;0.56;100.00
12666;BME280;58531;59.050;17.416;2023-11-21T10:08:45;101814.88;;;0.63;100.00
12666;BME280;58531;59.050;17.416;2023-11-21T10:11:14;101813.34;;;0.62;100.00
12666;BME280;58531;59.050;17.416;2023-11-21T10:13:43;101813.09;;;0.67;100.00
12666;BME280;58531;59.050;17.416;2023-11-21T10:16:14;101808.97;;;0.66;100.00
12666;BME280;58531;59.050;17.416;2023-11-21T10:18:42;101826.94;;;0.64;100.00
12666;BME280;58531;59.050;17.416;2023-11-21T10:21:13;101815.56;;;0.60;100.00
12666;BME280;58531;59.050;17.416;2023-11-21T10:23:40;101816.00;;;0.62;100.00
12666;BME280;58531;59.050;17.416;2023-11-21T10:26:12;101815.81;;;0.55;100.00
12666;BME280;58531;59.050;17.416;2023-11-21T10:28:41;101817.66;;;0.55;100.00
12666;BME280;58531;59.050;17.416;2023-11-21T10:31:21;101823.25;;;0.53;100.00
12666;BME280;58531;59.050;17.416;2023-11-21T10:33:50;101821.22;;;0.47;100.00
12666;BME280;58531;59.050;17.416;2023-11-21T10:36:26;101822.16;;;0.54;100.00
12666;BME280;58531;59.050;17.416;2023-11-21T10:38:54;101833.53;;;0.58;100.00
12666;BME280;58531;59.050;17.416;2023-11-21T10:41:22;101837.34;;;0.61;100.00
12666;BME280;58531;59.050;17.416;2023-11-21T10:43:53;101836.75;;;0.67;100.00
12666;BME280;58531;59.050;17.416;2023-11-21T10:46:21;101841.09;;;0.75;100.00
12666;BME280;58531;59.050;17.416;2023-11-21T10:48:52;101838.13;;;0.77;100.00
12666;BME280;58531;59.050;17.416;2023-11-21T10:51:20;101832.38;;;0.71;100.00
12666;BME280;58531;59.050;17.416;2023-11-21T10:53:48;101829.97;;;0.66;100.00
12666;BME280;58531;59.050;17.416;2023-11-21T10:56:18;101835.06;;;0.59;100.00
12666;BME280;58531;59.050;17.416;2023-11-21T10:58:49;101834.47;;;0.66;100.00
12666;BME280;58531;59.050;17.416;2023-11-21T11:01:17;101844.66;;;0.67;100.00
12666;BME280;58531;59.050;17.416;2023-11-21T11:03:47;101839.66;;;0.62;100.00
12666;BME280;58531;59.050;17.416;2023-11-21T11:06:17;101842.50;;;0.57;100.00
12666;BME280;58531;59.050;17.416;2023-11-21T11:08:44;101844.72;;;0.55;100.00
12666;BME280;58531;59.050;17.416;2023-11-21T11:11:13;101849.13;;;0.51;100.00
12666;BME280;58531;59.050;17.416;2023-11-21T11:13:43;101842.69;;;0.49;100.00
12666;BME280;58531;59.050;17.416;2023-11-21T11:16:12;101856.66;;;0.53;100.00
12666;BME280;58531;59.050;17.416;2023-11-21T11:18:42;101853.47;;;0.59;100.00
12666;BME280;58531;59.050;17.416;2023-11-21T11:21:16;101855.22;;;0.55;100.00
12666;BME280;58531;59.050;17.416;2023-11-21T11:24:01;101869.72;;;0.49;100.00
12666;BME280;58531;59.050;17.416;2023-11-21T11:26:42;101868.19;;;0.48;100.00
12666;BME280;58531;59.050;17.416;2023-11-21T11:29:15;101869.19;;;0.44;100.00
12666;BME280;58531;59.050;17.416;2023-11-21T11:31:55;101877.59;;;0.49;100.00
12666;BME280;58531;59.050;17.416;2023-11-21T11:34:29;101877.34;;;0.54;100.00
12666;BME280;58531;59.050;17.416;2023-11-21T11:37:00;101879.38;;;0.61;100.00
12666;BME280;58531;59.050;17.416;2023-11-21T11:39:30;101879.06;;;0.62;100.00
12666;BME280;58531;59.050;17.416;2023-11-21T11:41:59;101877.63;;;0.65;100.00
12666;BME280;58531;59.050;17.416;2023-11-21T11:44:47;101881.44;;;0.67;100.00
12666;BME280;58531;59.050;17.416;2023-11-21T11:47:19;101877.06;;;0.71;100.00
12666;BME280;58531;59.050;17.416;2023-11-21T11:49:57;101882.81;;;0.77;100.00
12666;BME280;58531;59.050;17.416;2023-11-21T11:52:35;101887.31;;;0.76;100.00
12666;BME280;58531;59.050;17.416;2023-11-21T11:55:02;101886.63;;;0.79;100.00
12666;BME280;58531;59.050;17.416;2023-11-21T11:57:31;101893.41;;;0.80;100.00
12666;BME280;58531;59.050;17.416;2023-11-21T12:00:32;101897.91;;;0.80;100.00
12666;BME280;58531;59.050;17.416;2023-11-21T12:03:03;101896.38;;;0.79;100.00
12666;BME280;58531;59.050;17.416;2023-11-21T12:05:32;101893.25;;;0.73;100.00
12666;BME280;58531;59.050;17.416;2023-11-21T12:08:02;101895.44;;;0.71;100.00
12666;BME280;58531;59.050;17.416;2023-11-21T12:10:30;101904.19;;;0.75;100.00
12666;BME280;58531;59.050;17.416;2023-11-21T12:13:00;101908.25;;;0.73;100.00
12666;BME280;58531;59.050;17.416;2023-11-21T12:15:27;101907.16;;;0.74;100.00
12666;BME280;58531;59.050;17.416;2023-11-21T12:17:57;101916.25;;;0.76;100.00
12666;BME280;58531;59.050;17.416;2023-11-21T12:20:25;101919.97;;;0.75;100.00
12666;BME280;58531;59.050;17.416;2023-11-21T12:22:53;101910.03;;;0.69;100.00
12666;BME280;58531;59.050;17.416;2023-11-21T12:25:23;101919.44;;;0.70;100.00
12666;BME280;58531;59.050;17.416;2023-11-21T12:27:51;101922.50;;;0.72;100.00
12666;BME280;58531;59.050;17.416;2023-11-21T12:30:21;101923.28;;;0.72;100.00
12666;BME280;58531;59.050;17.416;2023-11-21T12:32:50;101922.59;;;0.75;100.00
12666;BME280;58531;59.050;17.416;2023-11-21T12:35:18;101921.81;;;0.75;100.00
12666;BME280;58531;59.050;17.416;2023-11-21T12:37:45;101918.00;;;0.72;100.00
12666;BME280;58531;59.050;17.416;2023-11-21T12:40:12;101926.66;;;0.73;100.00
12666;BME280;58531;59.050;17.416;2023-11-21T12:42:41;101927.06;;;0.75;100.00